createdAt,value
2022-10-05T00:00:23.495Z,5.68
2022-10-05T00:02:53.300Z,5.28
2022-10-05T00:05:28.828Z,4.90
2022-10-05T00:08:01.832Z,5.50
2022-10-05T00:10:30.415Z,5.18
2022-10-05T00:12:58.086Z,5.45
2022-10-05T00:15:27.337Z,5.20
2022-10-05T00:17:54.958Z,4.82
2022-10-05T00:20:25.711Z,4.78
2022-10-05T00:22:58.462Z,4.72
2022-10-05T00:25:26.433Z,5.10
2022-10-05T00:27:56.785Z,4.55
2022-10-05T00:30:26.243Z,4.90
2022-10-05T00:32:59.522Z,4.93
2022-10-05T00:35:29.236Z,5.00
2022-10-05T00:37:57.428Z,5.18
2022-10-05T00:40:39.147Z,4.90
2022-10-05T00:43:27.082Z,4.72
2022-10-05T00:46:01.900Z,4.68
2022-10-05T00:48:43.369Z,4.60
2022-10-05T00:54:12.532Z,4.60
2022-10-05T00:56:57.634Z,4.75
2022-10-05T00:59:42.543Z,4.50
2022-10-05T01:02:16.699Z,4.88
2022-10-05T01:04:54.363Z,4.35
2022-10-05T01:07:33.610Z,5.05
2022-10-05T01:10:11.510Z,4.65
2022-10-05T01:12:49.538Z,5.03
2022-10-05T01:15:26.062Z,4.90
2022-10-05T01:18:01.774Z,6.05
2022-10-05T01:20:44.353Z,5.88
2022-10-05T01:23:41.770Z,5.68
2022-10-05T01:26:29.018Z,5.70
2022-10-05T01:29:05.744Z,5.40
2022-10-05T01:31:40.372Z,5.75
2022-10-05T01:34:19.365Z,5.35
2022-10-05T01:36:54.950Z,6.25
2022-10-05T01:39:32.385Z,5.60
2022-10-05T01:42:06.552Z,6.10
2022-10-05T01:44:42.265Z,6.15
2022-10-05T01:47:16.882Z,5.40
2022-10-05T01:49:53.565Z,5.80
2022-10-05T01:52:32.949Z,6.40
2022-10-05T01:55:15.136Z,5.70
2022-10-05T01:57:55.325Z,5.97
2022-10-05T02:00:24.587Z,6.30
2022-10-05T02:02:58.069Z,5.47
2022-10-05T02:05:30.478Z,6.38
2022-10-05T02:08:01.382Z,6.35
2022-10-05T02:10:36.216Z,6.18
2022-10-05T02:13:18.217Z,6.28
2022-10-05T02:15:53.982Z,6.10
2022-10-05T02:18:27.865Z,6.32
2022-10-05T02:20:57.716Z,5.85
2022-10-05T02:23:28.060Z,5.70
2022-10-05T02:25:57.358Z,6.50
2022-10-05T02:28:31.628Z,6.35
2022-10-05T02:31:06.840Z,6.07
2022-10-05T02:33:36.312Z,6.53
2022-10-05T02:36:12.246Z,5.82
2022-10-05T02:38:52.034Z,6.28
2022-10-05T02:41:28.861Z,6.07
2022-10-05T02:44:04.844Z,6.80
2022-10-05T02:46:37.846Z,6.00
2022-10-05T02:49:15.551Z,6.85
2022-10-05T02:51:51.751Z,6.20
2022-10-05T02:54:32.106Z,6.18
2022-10-05T02:57:05.822Z,6.57
2022-10-05T02:59:38.994Z,6.45
2022-10-05T03:02:16.237Z,6.05
2022-10-05T03:04:52.180Z,6.57
2022-10-05T03:07:24.563Z,6.93
2022-10-05T03:10:01.278Z,5.68
2022-10-05T03:12:43.876Z,6.47
2022-10-05T03:15:24.726Z,6.75
2022-10-05T03:18:03.091Z,6.28
2022-10-05T03:20:41.008Z,6.40
2022-10-05T03:23:16.884Z,6.20
2022-10-05T03:26:03.102Z,6.35
2022-10-05T03:28:40.714Z,6.60
2022-10-05T03:31:20.213Z,6.32
2022-10-05T03:33:54.280Z,6.25
2022-10-05T03:36:28.612Z,5.82
2022-10-05T03:39:02.641Z,5.28
2022-10-05T03:41:38.849Z,6.07
2022-10-05T03:44:18.349Z,5.80
2022-10-05T03:46:57.614Z,5.75
2022-10-05T03:49:35.053Z,5.80
2022-10-05T03:52:07.582Z,5.47
2022-10-05T03:54:39.640Z,6.30
2022-10-05T03:57:12.191Z,5.97
2022-10-05T03:59:44.726Z,5.28
2022-10-05T04:02:22.511Z,5.25
2022-10-05T04:04:56.808Z,5.75
2022-10-05T04:07:35.039Z,5.57
2022-10-05T04:10:08.038Z,5.25
2022-10-05T04:12:41.127Z,5.70
2022-10-05T04:15:19.262Z,5.70
2022-10-05T04:17:51.017Z,5.90
2022-10-05T04:20:24.164Z,5.22
2022-10-05T04:22:58.876Z,4.95
2022-10-05T04:25:30.697Z,4.80
2022-10-05T04:28:07.543Z,5.65
2022-10-05T04:30:40.706Z,4.80
2022-10-05T04:33:11.368Z,5.40
2022-10-05T04:35:55.173Z,5.25
2022-10-05T04:38:38.560Z,4.78
2022-10-05T04:41:22.522Z,5.60
2022-10-05T04:44:01.008Z,4.82
2022-10-05T04:46:39.936Z,5.53
2022-10-05T04:49:25.456Z,5.65
2022-10-05T04:52:02.695Z,5.32
2022-10-05T04:54:45.268Z,5.88
2022-10-05T04:57:17.560Z,5.65
2022-10-05T05:00:04.470Z,5.13
2022-10-05T05:02:48.985Z,5.53
2022-10-05T05:05:28.406Z,5.30
2022-10-05T05:08:12.130Z,5.07
2022-10-05T05:10:59.208Z,4.53
2022-10-05T05:13:44.688Z,4.03
2022-10-05T05:16:20.982Z,5.03
2022-10-05T05:19:22.060Z,4.07
2022-10-05T05:21:58.274Z,3.97
2022-10-05T05:24:39.582Z,3.72
2022-10-05T05:27:35.038Z,4.18
2022-10-05T05:30:08.493Z,3.70
2022-10-05T05:32:45.535Z,3.53
2022-10-05T05:35:32.093Z,3.78
2022-10-05T05:38:11.256Z,3.75
2022-10-05T05:40:49.309Z,3.58
2022-10-05T05:43:25.331Z,3.42
2022-10-05T05:46:00.368Z,4.13
2022-10-05T05:48:36.215Z,4.13
2022-10-05T05:51:09.205Z,3.58
2022-10-05T05:53:41.803Z,3.85
2022-10-05T05:56:13.973Z,4.53
2022-10-05T05:58:49.373Z,4.32
2022-10-05T06:01:33.152Z,4.28
2022-10-05T06:04:05.790Z,4.20
2022-10-05T06:06:38.339Z,4.70
2022-10-05T06:09:14.366Z,4.82
2022-10-05T06:11:49.399Z,4.38
2022-10-05T06:14:21.403Z,4.95
2022-10-05T06:16:54.590Z,4.65
2022-10-05T06:19:24.827Z,4.90
2022-10-05T06:21:56.282Z,4.78
2022-10-05T06:24:28.520Z,4.93
2022-10-05T06:27:20.009Z,4.45
2022-10-05T06:30:03.986Z,4.75
2022-10-05T06:32:36.108Z,5.45
2022-10-05T06:35:18.414Z,4.72
2022-10-05T06:38:05.593Z,4.82
2022-10-05T06:40:45.005Z,4.57
2022-10-05T06:43:37.702Z,4.70
2022-10-05T06:46:09.984Z,5.20
2022-10-05T06:48:58.847Z,4.80
2022-10-05T06:51:33.200Z,4.78
2022-10-05T06:54:09.828Z,5.07
2022-10-05T06:56:45.995Z,4.70
2022-10-05T06:59:23.547Z,4.93
2022-10-05T07:02:00.544Z,4.55
2022-10-05T07:04:47.094Z,5.07
2022-10-05T07:07:22.419Z,4.57
2022-10-05T07:10:02.546Z,4.30
2022-10-05T07:12:44.209Z,4.90
2022-10-05T07:15:35.809Z,4.82
2022-10-05T07:18:26.943Z,4.55
2022-10-05T07:21:02.683Z,4.50
2022-10-05T07:23:45.441Z,4.38
2022-10-05T07:26:20.632Z,4.68
2022-10-05T07:28:51.984Z,4.82
2022-10-05T07:31:29.673Z,4.18
2022-10-05T07:34:03.872Z,4.32
2022-10-05T07:36:58.816Z,4.40
2022-10-05T07:39:58.446Z,4.35
2022-10-05T07:42:33.922Z,4.20
2022-10-05T07:45:15.794Z,3.95
2022-10-05T07:47:50.758Z,3.75
2022-10-05T07:50:25.106Z,3.97
2022-10-05T07:52:57.557Z,4.65
2022-10-05T07:55:27.381Z,3.80
2022-10-05T07:58:06.733Z,3.80
2022-10-05T08:00:59.540Z,3.70
2022-10-05T08:03:38.283Z,3.60
2022-10-05T08:06:10.151Z,3.92
2022-10-05T08:08:49.047Z,3.45
2022-10-05T08:11:20.034Z,3.75
2022-10-05T08:13:52.641Z,3.88
2022-10-05T08:16:21.197Z,4.00
2022-10-05T08:18:57.755Z,3.92
2022-10-05T08:21:32.173Z,3.92
2022-10-05T08:24:07.862Z,3.78
2022-10-05T08:26:53.837Z,3.78
2022-10-05T08:29:28.210Z,3.95
2022-10-05T08:32:00.145Z,3.85
2022-10-05T08:34:36.098Z,4.00
2022-10-05T08:37:08.108Z,3.28
2022-10-05T08:39:40.819Z,3.90
2022-10-05T08:42:45.390Z,3.58
2022-10-05T08:45:38.758Z,4.00
2022-10-05T08:48:19.876Z,3.60
2022-10-05T08:51:27.608Z,3.83
2022-10-05T08:54:25.026Z,4.10
2022-10-05T08:57:15.495Z,3.72
2022-10-05T09:00:08.863Z,3.83
2022-10-05T09:03:15.901Z,3.50
2022-10-05T09:06:07.052Z,3.53
2022-10-05T09:08:49.192Z,3.90
2022-10-05T09:11:26.278Z,3.72
2022-10-05T09:14:25.498Z,3.88
2022-10-05T09:17:38.508Z,3.50
2022-10-05T09:20:30.757Z,3.50
2022-10-05T09:23:01.031Z,3.58
2022-10-05T09:25:55.176Z,3.60
2022-10-05T09:28:31.035Z,3.28
2022-10-05T09:31:24.084Z,3.08
2022-10-05T09:34:36.074Z,3.50
2022-10-05T09:37:56.885Z,3.40
2022-10-05T09:40:55.343Z,4.07
2022-10-05T09:43:55.367Z,3.92
2022-10-05T09:47:15.472Z,3.92
2022-10-05T09:50:09.008Z,3.47
2022-10-05T09:52:55.745Z,3.38
2022-10-05T09:55:55.470Z,3.50
2022-10-05T09:59:07.360Z,2.78
2022-10-05T10:01:51.622Z,2.70
2022-10-05T10:04:37.785Z,3.10
2022-10-05T10:07:28.302Z,2.58
2022-10-05T10:10:32.369Z,3.08
2022-10-05T10:13:23.222Z,3.00
2022-10-05T10:16:09.521Z,3.25
2022-10-05T10:18:53.994Z,2.63
2022-10-05T10:21:54.860Z,3.25
2022-10-05T10:24:43.533Z,3.42
2022-10-05T10:27:24.025Z,3.22
2022-10-05T10:30:10.101Z,3.38
2022-10-05T10:33:05.374Z,3.30
2022-10-05T10:35:36.791Z,3.08
2022-10-05T10:38:23.752Z,3.33
2022-10-05T10:41:27.920Z,3.03
2022-10-05T10:44:34.018Z,3.50
2022-10-05T10:47:29.818Z,3.35
2022-10-05T10:50:23.477Z,3.50
2022-10-05T10:53:05.676Z,3.65
2022-10-05T10:55:43.581Z,3.80
2022-10-05T10:58:49.694Z,3.78
2022-10-05T11:01:31.738Z,3.70
2022-10-05T11:04:32.019Z,3.85
2022-10-05T11:07:29.558Z,3.80
2022-10-05T11:10:15.609Z,3.78
2022-10-05T11:13:26.090Z,4.13
2022-10-05T11:16:19.806Z,4.15
2022-10-05T11:19:12.325Z,3.58
2022-10-05T11:21:51.369Z,3.40
2022-10-05T11:24:41.028Z,3.58
2022-10-05T11:27:28.451Z,3.53
2022-10-05T11:30:23.014Z,3.55
2022-10-05T11:33:24.385Z,3.17
2022-10-05T11:36:34.928Z,3.33
2022-10-05T11:39:38.842Z,3.13
2022-10-05T11:42:44.855Z,3.17
2022-10-05T11:45:22.631Z,3.47
2022-10-05T11:48:08.714Z,3.10
2022-10-05T11:50:43.458Z,3.28
2022-10-05T11:53:18.456Z,2.97
2022-10-05T11:55:57.633Z,3.50
2022-10-05T11:58:30.810Z,4.00
2022-10-05T12:01:05.064Z,3.85
2022-10-05T12:03:45.181Z,3.80
2022-10-05T12:06:29.320Z,3.65
2022-10-05T12:09:11.936Z,3.38
2022-10-05T12:11:58.062Z,3.20
2022-10-05T12:14:39.732Z,3.78
2022-10-05T12:17:17.085Z,3.50
2022-10-05T12:19:49.083Z,3.30
2022-10-05T12:22:21.933Z,3.22
2022-10-05T12:25:05.118Z,3.47
2022-10-05T12:27:38.213Z,3.38
2022-10-05T12:30:15.805Z,3.60
2022-10-05T12:32:59.382Z,3.13
2022-10-05T12:35:47.869Z,3.17
2022-10-05T12:38:24.849Z,2.95
2022-10-05T12:41:01.726Z,3.10
2022-10-05T12:43:38.264Z,3.10
2022-10-05T12:46:18.053Z,2.63
2022-10-05T12:49:08.736Z,2.38
2022-10-05T12:51:42.893Z,2.53
2022-10-05T12:54:17.873Z,2.78
2022-10-05T12:56:54.581Z,2.92
2022-10-05T12:59:35.011Z,2.60
2022-10-05T13:02:11.922Z,2.90
2022-10-05T13:04:47.194Z,2.70
2022-10-05T13:07:29.863Z,2.88
2022-10-05T13:10:10.517Z,3.10
2022-10-05T13:12:49.613Z,3.00
2022-10-05T13:15:24.400Z,3.17
2022-10-05T13:18:05.230Z,3.10
2022-10-05T13:20:37.979Z,3.03
2022-10-05T13:23:13.558Z,3.33
2022-10-05T13:25:51.681Z,3.25
2022-10-05T13:28:25.969Z,2.83
2022-10-05T13:31:03.254Z,3.05
2022-10-05T13:34:02.334Z,3.03
2022-10-05T13:36:40.678Z,2.85
2022-10-05T13:39:21.882Z,2.97
2022-10-05T13:41:55.551Z,2.60
2022-10-05T13:44:32.044Z,2.80
2022-10-05T13:47:02.785Z,2.78
2022-10-05T13:49:42.328Z,2.90
2022-10-05T13:52:22.085Z,2.67
2022-10-05T13:54:59.622Z,2.70
2022-10-05T13:57:45.199Z,2.70
2022-10-05T14:00:22.607Z,2.97
2022-10-05T14:02:56.874Z,3.00
2022-10-05T14:05:29.440Z,2.53
2022-10-05T14:07:59.155Z,2.97
2022-10-05T14:10:37.476Z,2.83
2022-10-05T14:13:22.882Z,3.08
2022-10-05T14:16:04.380Z,2.38
2022-10-05T14:18:34.679Z,2.47
2022-10-05T14:21:16.491Z,2.60
2022-10-05T14:23:44.567Z,2.55
2022-10-05T14:26:20.637Z,2.45
2022-10-05T14:29:00.252Z,2.45
2022-10-05T14:31:30.984Z,2.22
2022-10-05T14:34:17.759Z,2.00
2022-10-05T14:36:47.060Z,2.35
2022-10-05T14:39:14.836Z,2.50
2022-10-05T14:41:48.733Z,2.08
2022-10-05T14:44:28.445Z,1.85
2022-10-05T14:46:58.746Z,2.05
2022-10-05T14:49:29.018Z,2.20
2022-10-05T14:51:58.626Z,1.90
2022-10-05T14:54:49.164Z,2.20
2022-10-05T14:57:25.182Z,2.13
2022-10-05T15:00:03.884Z,1.95
2022-10-05T15:03:05.476Z,2.33
2022-10-05T15:05:39.972Z,2.20
2022-10-05T15:08:21.040Z,2.15
2022-10-05T15:10:53.577Z,1.95
2022-10-05T15:13:25.354Z,2.03
2022-10-05T15:15:55.957Z,2.15
2022-10-05T15:18:37.264Z,2.08
2022-10-05T15:21:22.541Z,2.50
2022-10-05T15:23:55.166Z,2.47
2022-10-05T15:26:36.230Z,1.98
2022-10-05T15:29:17.799Z,2.22
2022-10-05T15:31:57.643Z,2.25
2022-10-05T15:34:33.564Z,2.30
2022-10-05T15:37:10.225Z,2.10
2022-10-05T15:39:45.208Z,2.10
2022-10-05T15:42:15.190Z,2.40
2022-10-05T15:44:55.116Z,2.50
2022-10-05T15:47:27.094Z,2.45
2022-10-05T15:50:04.349Z,2.25
2022-10-05T15:52:38.511Z,2.40
2022-10-05T15:55:22.123Z,2.45
2022-10-05T15:57:57.706Z,2.38
2022-10-05T16:00:26.954Z,2.53
2022-10-05T16:03:05.025Z,2.38
2022-10-05T16:06:07.430Z,2.22
2022-10-05T16:08:58.495Z,2.10
2022-10-05T16:12:00.053Z,2.20
2022-10-05T16:14:36.343Z,2.00
2022-10-05T16:17:15.493Z,2.28
2022-10-05T16:19:54.589Z,2.00
2022-10-05T16:22:29.073Z,2.00
2022-10-05T16:27:43.713Z,2.10
2022-10-05T16:30:16.511Z,1.85
2022-10-05T16:32:49.917Z,1.80
2022-10-05T16:35:29.137Z,2.03
2022-10-05T16:38:08.053Z,1.92
2022-10-05T16:40:45.198Z,2.17
2022-10-05T16:43:26.734Z,2.10
2022-10-05T16:46:10.074Z,2.25
2022-10-05T16:48:46.096Z,2.10
2022-10-05T16:51:21.721Z,2.30
2022-10-05T16:54:01.631Z,2.28
2022-10-05T16:56:35.214Z,2.20
2022-10-05T16:59:26.090Z,2.13
2022-10-05T17:02:05.901Z,2.40
2022-10-05T17:04:46.047Z,2.00
2022-10-05T17:07:34.966Z,2.30
2022-10-05T17:10:33.766Z,2.05
2022-10-05T17:13:13.528Z,2.33
2022-10-05T17:16:01.180Z,2.40
2022-10-05T17:18:53.139Z,2.50
2022-10-05T17:21:28.334Z,1.90
2022-10-05T17:24:02.963Z,2.20
2022-10-05T17:26:39.586Z,1.98
2022-10-05T17:29:16.781Z,2.10
2022-10-05T17:32:12.744Z,2.35
2022-10-05T17:35:18.168Z,2.30
2022-10-05T17:38:18.147Z,2.30
2022-10-05T17:41:16.046Z,2.45
2022-10-05T17:44:20.654Z,2.08
2022-10-05T17:46:50.801Z,2.10
2022-10-05T17:49:47.466Z,2.03
2022-10-05T17:52:44.255Z,2.53
2022-10-05T17:55:29.926Z,2.40
2022-10-05T17:58:00.002Z,2.40
2022-10-05T18:00:43.590Z,2.15
2022-10-05T18:03:33.979Z,2.40
2022-10-05T18:06:31.778Z,2.55
2022-10-05T18:09:33.184Z,2.05
2022-10-05T18:14:55.282Z,2.28
2022-10-05T18:17:45.304Z,2.67
2022-10-05T18:20:18.993Z,2.50
2022-10-05T18:22:50.637Z,2.30
2022-10-05T18:25:27.126Z,2.33
2022-10-05T18:28:12.217Z,2.20
2022-10-05T18:30:59.171Z,2.33
2022-10-05T18:33:46.641Z,2.40
2022-10-05T18:36:27.416Z,2.53
2022-10-05T18:39:04.374Z,2.40
2022-10-05T18:41:45.381Z,2.40
2022-10-05T18:44:31.044Z,1.98
2022-10-05T18:47:06.373Z,2.60
2022-10-05T18:49:50.380Z,2.60
2022-10-05T18:52:26.490Z,2.42
2022-10-05T18:55:06.309Z,2.30
2022-10-05T18:57:49.374Z,2.38
2022-10-05T19:00:19.993Z,2.45
2022-10-05T19:02:52.272Z,2.38
2022-10-05T19:05:48.799Z,2.65
2022-10-05T19:08:29.682Z,2.53
2022-10-05T19:11:06.177Z,2.60
2022-10-05T19:13:44.374Z,2.53
2022-10-05T19:16:41.745Z,2.50
2022-10-05T19:19:32.381Z,2.42
2022-10-05T19:22:05.923Z,2.53
2022-10-05T19:24:47.364Z,2.38
2022-10-05T19:27:25.455Z,2.58
2022-10-05T19:30:11.509Z,2.60
2022-10-05T19:32:51.003Z,2.53
2022-10-05T19:35:26.261Z,2.50
2022-10-05T19:38:09.608Z,2.83
2022-10-05T19:40:46.004Z,2.22
2022-10-05T19:43:29.321Z,2.70
2022-10-05T19:46:06.260Z,2.78
2022-10-05T19:48:43.120Z,2.90
2022-10-05T19:51:15.872Z,1.65
2022-10-05T19:53:50.011Z,1.20
2022-10-05T19:56:20.258Z,0.75
2022-10-05T19:58:53.154Z,0.90
2022-10-05T20:01:26.148Z,0.63
2022-10-05T20:03:55.428Z,0.60
2022-10-05T20:06:23.123Z,0.60
2022-10-05T20:08:52.863Z,0.60
2022-10-05T20:11:22.605Z,0.50
2022-10-05T20:14:19.593Z,0.50
2022-10-05T20:17:04.985Z,0.40
2022-10-05T20:19:57.434Z,0.50
2022-10-05T20:22:31.498Z,0.60
2022-10-05T20:25:01.184Z,0.50
2022-10-05T20:27:46.461Z,0.70
2022-10-05T20:30:18.338Z,0.50
2022-10-05T20:32:48.877Z,0.60
2022-10-05T20:35:16.852Z,0.70
2022-10-05T20:37:44.595Z,0.80
2022-10-05T20:40:12.886Z,0.50
2022-10-05T20:42:40.507Z,0.60
2022-10-05T20:45:09.262Z,0.80
2022-10-05T20:47:38.938Z,0.60
2022-10-05T20:50:09.042Z,0.57
2022-10-05T20:52:37.545Z,0.60
2022-10-05T20:55:05.981Z,0.80
2022-10-05T20:57:33.940Z,0.68
2022-10-05T21:00:01.611Z,0.65
2022-10-05T21:02:29.441Z,0.60
2022-10-05T21:04:58.465Z,0.75
2022-10-05T21:07:26.190Z,0.70
2022-10-05T21:09:55.631Z,0.60
2022-10-05T21:12:23.286Z,0.50
2022-10-05T21:14:52.688Z,0.65
2022-10-05T21:17:20.326Z,0.68
2022-10-05T21:19:48.045Z,0.40
2022-10-05T21:22:17.066Z,0.43
2022-10-05T21:24:45.690Z,0.38
2022-10-05T21:27:13.823Z,0.40
2022-10-05T21:29:42.194Z,0.52
2022-10-05T21:32:11.737Z,0.50
2022-10-05T21:34:40.102Z,0.40
2022-10-05T21:37:08.207Z,0.40
2022-10-05T21:39:37.183Z,0.40
2022-10-05T21:42:05.279Z,0.40
2022-10-05T21:44:32.997Z,0.60
2022-10-05T21:47:02.324Z,0.40
2022-10-05T21:49:30.101Z,0.60
2022-10-05T21:51:58.047Z,0.47
2022-10-05T21:56:58.324Z,0.50
2022-10-05T21:59:30.514Z,0.63
2022-10-05T22:01:58.388Z,0.40
2022-10-05T22:06:54.488Z,0.50
2022-10-05T22:09:22.108Z,0.38
2022-10-05T22:11:49.882Z,0.47
2022-10-05T22:14:18.875Z,0.40
2022-10-05T22:16:47.180Z,0.50
2022-10-05T22:19:17.560Z,0.45
2022-10-05T22:21:45.195Z,0.60
2022-10-05T22:24:12.846Z,0.60
2022-10-05T22:26:42.838Z,0.65
2022-10-05T22:29:10.655Z,0.38
2022-10-05T22:31:40.257Z,0.40
2022-10-05T22:34:07.949Z,0.63
2022-10-05T22:36:35.993Z,0.60
2022-10-05T22:39:03.781Z,0.57
2022-10-05T22:41:31.396Z,0.80
2022-10-05T22:43:59.080Z,0.70
2022-10-05T22:46:26.832Z,0.57
2022-10-05T22:48:55.842Z,0.73
2022-10-05T22:51:23.453Z,0.80
2022-10-05T22:53:51.358Z,0.90
2022-10-05T22:58:47.164Z,0.60
2022-10-05T23:01:17.539Z,0.80
2022-10-05T23:03:46.048Z,0.80
2022-10-05T23:06:16.717Z,0.80
2022-10-05T23:08:44.710Z,0.90
2022-10-05T23:16:09.842Z,0.98
2022-10-05T23:18:38.102Z,1.10
2022-10-05T23:21:07.345Z,0.98
2022-10-05T23:23:38.642Z,1.05
2022-10-05T23:26:08.031Z,1.00
2022-10-05T23:28:35.721Z,0.93
2022-10-05T23:31:06.061Z,0.95
2022-10-05T23:33:34.165Z,0.98
2022-10-05T23:36:03.496Z,1.23
2022-10-05T23:38:31.833Z,1.17
2022-10-05T23:41:01.097Z,1.10
2022-10-05T23:43:29.246Z,1.20
2022-10-05T23:45:57.179Z,0.98
2022-10-05T23:50:54.097Z,0.60
2022-10-05T23:53:21.827Z,0.95
2022-10-05T23:55:50.657Z,1.30
2022-10-05T23:58:20.077Z,0.80
